createdAt,value
2019-05-09T00:00:10.639Z,99191.96
2019-05-09T00:01:45.082Z,99185.94
2019-05-09T00:03:20.044Z,99191.05
2019-05-09T00:04:54.403Z,99183.63
2019-05-09T00:06:28.776Z,99189.14
2019-05-09T00:08:03.582Z,99180.09
2019-05-09T00:09:38.835Z,99180.66
2019-05-09T00:11:14.729Z,99184.39
2019-05-09T00:12:49.417Z,99183.65
2019-05-09T00:14:23.918Z,99180.83
2019-05-09T00:15:58.837Z,99180.73
2019-05-09T00:17:33.745Z,99179.69
2019-05-09T00:19:08.261Z,99179.59
2019-05-09T00:20:50.139Z,99180.54
2019-05-09T00:22:24.693Z,99181.09
2019-05-09T00:23:59.045Z,99178.95
2019-05-09T00:25:33.967Z,99177.62
2019-05-09T00:27:08.401Z,99173.32
2019-05-09T00:28:44.648Z,99178.50
2019-05-09T00:30:20.556Z,99184.16
2019-05-09T00:31:56.452Z,99184.03
2019-05-09T00:33:34.403Z,99182.56
2019-05-09T00:35:14.143Z,99185.88
2019-05-09T00:36:48.608Z,99186.11
2019-05-09T00:38:24.537Z,99186.92
2019-05-09T00:39:58.866Z,99189.00
2019-05-09T00:41:33.685Z,99182.20
2019-05-09T00:43:08.022Z,99182.33
2019-05-09T00:44:49.583Z,99186.58
2019-05-09T00:46:25.476Z,99178.73
2019-05-09T00:48:00.145Z,99185.43
2019-05-09T00:49:34.464Z,99182.95
2019-05-09T00:51:10.389Z,99178.11
2019-05-09T00:52:44.704Z,99178.98
2019-05-09T00:54:19.841Z,99179.95
2019-05-09T00:55:54.126Z,99180.66
2019-05-09T00:57:34.516Z,99180.95
2019-05-09T00:59:08.786Z,99179.80
2019-05-09T01:00:44.028Z,99176.46
2019-05-09T01:02:18.562Z,99178.31
2019-05-09T01:03:53.618Z,99179.28
2019-05-09T01:05:28.124Z,99178.96
2019-05-09T01:07:03.453Z,99174.73
2019-05-09T01:08:38.104Z,99177.82
2019-05-09T01:10:13.381Z,99174.27
2019-05-09T01:11:47.938Z,99174.00
2019-05-09T01:13:23.199Z,99173.31
2019-05-09T01:14:57.489Z,99169.64
2019-05-09T01:16:33.551Z,99165.63
2019-05-09T01:18:07.717Z,99162.84
2019-05-09T01:19:43.241Z,99161.69
2019-05-09T01:21:17.785Z,99161.53
2019-05-09T01:22:54.053Z,99162.73
2019-05-09T01:24:30.092Z,99163.76
2019-05-09T01:26:04.703Z,99160.89
2019-05-09T01:27:38.968Z,99159.83
2019-05-09T01:29:13.707Z,99161.87
2019-05-09T01:30:48.281Z,99164.11
2019-05-09T01:32:34.280Z,99158.64
2019-05-09T01:34:16.535Z,99162.76
2019-05-09T01:35:50.795Z,99158.10
2019-05-09T01:37:25.113Z,99157.73
2019-05-09T01:38:59.676Z,99153.45
2019-05-09T01:40:34.067Z,99153.41
2019-05-09T01:42:07.740Z,99162.89
2019-05-09T01:43:41.388Z,99159.38
2019-05-09T01:45:16.055Z,99158.88
2019-05-09T01:46:50.347Z,99162.13
2019-05-09T01:48:24.613Z,99157.09
2019-05-09T01:50:00.215Z,99160.89
2019-05-09T01:51:34.834Z,99162.94
2019-05-09T01:53:09.532Z,99159.86
2019-05-09T01:54:45.668Z,99159.92
2019-05-09T01:56:19.894Z,99163.49
2019-05-09T01:57:54.537Z,99164.14
2019-05-09T01:59:28.836Z,99155.11
2019-05-09T02:01:04.774Z,99158.45
2019-05-09T02:02:39.012Z,99158.84
2019-05-09T02:04:13.873Z,99152.83
2019-05-09T02:05:48.022Z,99150.78
2019-05-09T02:07:23.737Z,99149.80
2019-05-09T02:08:58.126Z,99154.80
2019-05-09T02:10:34.604Z,99149.83
2019-05-09T02:12:07.792Z,99150.95
2019-05-09T02:13:41.476Z,99154.48
2019-05-09T02:15:16.744Z,99148.80
2019-05-09T02:16:53.704Z,99148.14
2019-05-09T02:18:30.016Z,99142.75
2019-05-09T02:20:05.013Z,99147.56
2019-05-09T02:21:38.648Z,99142.43
2019-05-09T02:23:13.994Z,99137.84
2019-05-09T02:24:48.848Z,99138.64
2019-05-09T02:26:24.070Z,99136.81
2019-05-09T02:27:57.939Z,99135.95
2019-05-09T02:29:33.791Z,99137.06
2019-05-09T02:31:07.869Z,99136.39
2019-05-09T02:32:44.735Z,99141.73
2019-05-09T02:34:17.477Z,99132.11
2019-05-09T02:35:56.982Z,99133.33
2019-05-09T02:37:28.791Z,99140.02
2019-05-09T02:39:02.735Z,99138.63
2019-05-09T02:40:39.160Z,99136.41
2019-05-09T02:42:14.212Z,99135.53
2019-05-09T02:43:49.566Z,99138.95
2019-05-09T02:45:28.283Z,99143.91
2019-05-09T02:47:02.841Z,99143.05
2019-05-09T02:48:38.659Z,99141.98
2019-05-09T02:50:13.100Z,99145.12
2019-05-09T02:51:48.739Z,99144.73
2019-05-09T02:53:22.087Z,99142.45
2019-05-09T02:54:58.322Z,99136.51
2019-05-09T02:56:32.000Z,99142.92
2019-05-09T02:58:08.333Z,99135.47
2019-05-09T02:59:43.620Z,99140.07
2019-05-09T03:01:21.773Z,99135.97
2019-05-09T03:02:59.559Z,99136.99
2019-05-09T03:04:33.594Z,99131.95
2019-05-09T03:06:09.178Z,99139.44
2019-05-09T03:07:51.683Z,99140.72
2019-05-09T03:09:28.427Z,99141.00
2019-05-09T03:11:01.340Z,99143.80
2019-05-09T03:12:39.598Z,99142.72
2019-05-09T03:14:11.237Z,99133.91
2019-05-09T03:15:49.343Z,99134.07
2019-05-09T03:17:22.137Z,99140.19
2019-05-09T03:18:58.431Z,99146.71
2019-05-09T03:20:40.154Z,99144.12
2019-05-09T03:22:18.571Z,99143.36
2019-05-09T03:23:51.335Z,99145.47
2019-05-09T03:25:24.980Z,99141.65
2019-05-09T03:27:00.582Z,99142.83
2019-05-09T03:28:41.571Z,99139.84
2019-05-09T03:30:23.411Z,99140.58
2019-05-09T03:32:00.085Z,99143.39
2019-05-09T03:33:35.706Z,99133.92
2019-05-09T03:35:08.491Z,99135.48
2019-05-09T03:36:42.376Z,99136.71
2019-05-09T03:38:17.955Z,99137.17
2019-05-09T03:39:51.821Z,99136.72
2019-05-09T03:41:27.530Z,99137.95
2019-05-09T03:43:00.756Z,99138.23
2019-05-09T03:44:34.496Z,99134.77
2019-05-09T03:46:13.398Z,99129.06
2019-05-09T03:47:49.259Z,99129.59
2019-05-09T03:49:24.607Z,99129.03
2019-05-09T03:50:58.244Z,99133.45
2019-05-09T03:52:32.684Z,99127.16
2019-05-09T03:54:08.062Z,99127.91
2019-05-09T03:55:42.530Z,99130.59
2019-05-09T03:57:24.129Z,99130.81
2019-05-09T03:58:58.748Z,99133.59
2019-05-09T04:00:32.436Z,99126.73
2019-05-09T04:02:09.831Z,99132.30
2019-05-09T04:03:42.637Z,99128.27
2019-05-09T04:05:18.127Z,99129.39
2019-05-09T04:06:51.866Z,99124.33
2019-05-09T04:08:28.105Z,99122.98
2019-05-09T04:10:01.471Z,99125.63
2019-05-09T04:11:38.210Z,99124.43
2019-05-09T04:13:12.712Z,99127.88
2019-05-09T04:14:47.944Z,99123.66
2019-05-09T04:16:22.300Z,99120.02
2019-05-09T04:17:57.899Z,99121.55
2019-05-09T04:19:32.228Z,99116.09
2019-05-09T04:21:08.453Z,99121.42
2019-05-09T04:22:42.738Z,99113.14
2019-05-09T04:24:17.801Z,99107.13
2019-05-09T04:26:02.538Z,99113.50
2019-05-09T04:27:37.443Z,99107.09
2019-05-09T04:29:11.812Z,99111.06
2019-05-09T04:30:47.745Z,99107.94
2019-05-09T04:32:22.030Z,99102.14
2019-05-09T04:33:57.388Z,99100.34
2019-05-09T04:35:31.824Z,99103.00
2019-05-09T04:37:07.869Z,99094.02
2019-05-09T04:38:41.921Z,99097.70
2019-05-09T04:40:17.798Z,99098.41
2019-05-09T04:41:55.149Z,99093.56
2019-05-09T04:43:35.487Z,99100.39
2019-05-09T04:45:11.772Z,99100.20
2019-05-09T04:46:47.923Z,99093.83
2019-05-09T04:48:31.232Z,99099.56
2019-05-09T04:50:07.557Z,99095.95
2019-05-09T04:51:41.957Z,99095.60
2019-05-09T04:53:18.163Z,99093.18
2019-05-09T04:54:52.113Z,99084.25
2019-05-09T04:56:31.437Z,99086.37
2019-05-09T04:58:05.606Z,99089.66
2019-05-09T04:59:39.904Z,99087.76
2019-05-09T05:01:25.028Z,99079.47
2019-05-09T05:02:59.684Z,99083.34
2019-05-09T05:04:33.893Z,99077.60
2019-05-09T05:06:08.122Z,99073.23
2019-05-09T05:07:42.372Z,99072.17
2019-05-09T05:09:21.084Z,99074.83
2019-05-09T05:10:52.984Z,99067.66
2019-05-09T05:12:27.771Z,99063.37
2019-05-09T05:14:02.305Z,99054.52
2019-05-09T05:15:37.788Z,99061.53
2019-05-09T05:17:12.100Z,99059.27
2019-05-09T05:18:47.808Z,99055.76
2019-05-09T05:20:23.760Z,99057.44
2019-05-09T05:21:59.909Z,99055.72
2019-05-09T05:23:41.218Z,99049.27
2019-05-09T05:25:17.725Z,99058.52
2019-05-09T05:26:51.427Z,99054.29
2019-05-09T05:28:27.853Z,99051.55
2019-05-09T05:30:02.185Z,99049.71
2019-05-09T05:31:38.651Z,99043.33
2019-05-09T05:33:13.988Z,99048.50
2019-05-09T05:35:02.565Z,99046.88
2019-05-09T05:36:38.344Z,99043.96
2019-05-09T05:38:12.718Z,99043.84
2019-05-09T05:39:47.754Z,99040.11
2019-05-09T05:41:22.573Z,99043.77
2019-05-09T05:42:58.534Z,99036.62
2019-05-09T05:44:32.848Z,99036.36
2019-05-09T05:46:18.312Z,99037.92
2019-05-09T05:47:54.762Z,99038.60
2019-05-09T05:49:28.990Z,99045.14
2019-05-09T05:51:03.213Z,99043.91
2019-05-09T05:52:37.621Z,99045.57
2019-05-09T05:54:12.207Z,99044.25
2019-05-09T05:55:50.493Z,99042.07
2019-05-09T05:57:22.314Z,99040.08
2019-05-09T05:58:58.076Z,99040.45
2019-05-09T06:00:32.625Z,99038.53
2019-05-09T06:02:08.584Z,99037.27
2019-05-09T06:03:42.775Z,99046.91
2019-05-09T06:05:18.632Z,99042.91
2019-05-09T06:06:53.251Z,99039.72
2019-05-09T06:08:27.685Z,99032.79
2019-05-09T06:10:02.164Z,99033.77
2019-05-09T06:11:38.453Z,99029.06
2019-05-09T06:13:12.642Z,99027.83
2019-05-09T06:14:48.089Z,99022.92
2019-05-09T06:16:22.500Z,99022.53
2019-05-09T06:17:57.963Z,99014.77
2019-05-09T06:19:32.752Z,99010.08
2019-05-09T06:21:08.840Z,99008.84
2019-05-09T06:22:42.905Z,99005.31
2019-05-09T06:24:17.692Z,99005.72
2019-05-09T06:25:52.459Z,99005.34
2019-05-09T06:27:27.512Z,99001.59
2019-05-09T06:29:02.223Z,98999.30
2019-05-09T06:30:40.889Z,98994.28
2019-05-09T06:32:12.675Z,98992.23
2019-05-09T06:33:53.192Z,98990.25
2019-05-09T06:35:25.036Z,98992.97
2019-05-09T06:37:02.970Z,98995.05
2019-05-09T06:38:37.564Z,98984.10
2019-05-09T06:40:14.378Z,98982.38
2019-05-09T06:41:48.682Z,98979.70
2019-05-09T06:43:24.556Z,98980.66
2019-05-09T06:45:00.930Z,98975.16
2019-05-09T06:46:42.540Z,98977.65
2019-05-09T06:48:18.072Z,98974.17
2019-05-09T06:49:57.445Z,98970.28
2019-05-09T06:51:32.155Z,98968.06
2019-05-09T06:53:08.033Z,98967.26
2019-05-09T06:54:42.497Z,98960.48
2019-05-09T06:56:17.810Z,98962.61
2019-05-09T06:57:52.786Z,98958.56
2019-05-09T06:59:28.345Z,98961.69
2019-05-09T07:01:08.473Z,98958.78
2019-05-09T07:02:44.337Z,98952.73
2019-05-09T07:04:29.891Z,98952.64
2019-05-09T07:06:21.858Z,98950.33
2019-05-09T07:08:00.420Z,98948.86
2019-05-09T07:09:39.656Z,98939.69
2019-05-09T07:11:13.947Z,98949.92
2019-05-09T07:12:48.714Z,98948.67
2019-05-09T07:14:37.993Z,98947.19
2019-05-09T07:16:09.495Z,98949.95
2019-05-09T07:17:44.053Z,98944.05
2019-05-09T07:19:18.306Z,98947.66
2019-05-09T07:20:52.594Z,98943.41
2019-05-09T07:22:28.800Z,98938.95
2019-05-09T07:24:03.061Z,98933.12
2019-05-09T07:25:44.940Z,98937.80
2019-05-09T07:27:19.149Z,98934.59
2019-05-09T07:28:53.818Z,98931.35
2019-05-09T07:30:32.849Z,98925.81
2019-05-09T07:32:14.815Z,98923.88
2019-05-09T07:33:50.672Z,98920.87
2019-05-09T07:35:27.665Z,98923.42
2019-05-09T07:37:01.149Z,98924.25
2019-05-09T07:38:35.469Z,98917.36
2019-05-09T07:40:09.669Z,98912.84
2019-05-09T07:41:43.977Z,98913.23
2019-05-09T07:43:18.200Z,98900.83
2019-05-09T07:44:54.019Z,98905.02
2019-05-09T07:46:29.799Z,98900.97
2019-05-09T07:48:04.382Z,98894.98
2019-05-09T07:49:38.639Z,98898.08
2019-05-09T07:51:13.004Z,98898.34
2019-05-09T07:52:47.829Z,98890.80
2019-05-09T07:54:25.649Z,98890.09
2019-05-09T07:55:58.516Z,98895.20
2019-05-09T07:57:32.740Z,98886.61
2019-05-09T07:59:07.691Z,98891.65
2019-05-09T08:00:42.241Z,98894.07
2019-05-09T08:02:17.667Z,98897.57
2019-05-09T08:03:52.272Z,98893.86
2019-05-09T08:05:29.049Z,98890.18
2019-05-09T08:07:05.023Z,98888.45
2019-05-09T08:08:39.233Z,98885.38
2019-05-09T08:10:13.543Z,98883.40
2019-05-09T08:11:48.327Z,98881.93
2019-05-09T08:13:23.411Z,98877.24
2019-05-09T08:15:10.258Z,98879.11
2019-05-09T08:16:33.551Z,98870.20
2019-05-09T08:18:08.694Z,98872.92
2019-05-09T08:19:43.624Z,98867.55
2019-05-09T08:21:18.165Z,98868.78
2019-05-09T08:22:58.657Z,98864.36
2019-05-09T08:24:28.672Z,98863.60
2019-05-09T08:26:04.601Z,98866.55
2019-05-09T08:27:38.883Z,98861.64
2019-05-09T08:29:13.093Z,98863.60
2019-05-09T08:30:48.399Z,98856.00
2019-05-09T08:32:23.219Z,98855.36
2019-05-09T08:33:59.321Z,98847.38
2019-05-09T08:35:33.287Z,98848.50
2019-05-09T08:37:08.300Z,98846.77
2019-05-09T08:38:42.845Z,98840.79
2019-05-09T08:40:18.328Z,98831.80
2019-05-09T08:41:52.911Z,98836.61
2019-05-09T08:43:28.333Z,98828.56
2019-05-09T08:45:03.237Z,98830.84
2019-05-09T08:46:37.837Z,98825.41
2019-05-09T08:48:12.220Z,98826.03
2019-05-09T08:49:50.781Z,98825.20
2019-05-09T08:51:47.393Z,98823.73
2019-05-09T08:53:11.687Z,98818.97
2019-05-09T08:54:48.568Z,98819.63
2019-05-09T08:56:23.062Z,98811.90
2019-05-09T08:57:58.629Z,98817.28
2019-05-09T08:59:33.339Z,98819.84
2019-05-09T09:01:10.117Z,98814.23
2019-05-09T09:02:43.488Z,98815.07
2019-05-09T09:04:18.993Z,98813.34
2019-05-09T09:05:53.669Z,98808.91
2019-05-09T09:07:29.665Z,98807.12
2019-05-09T09:09:05.273Z,98803.54
2019-05-09T09:10:39.875Z,98806.20
2019-05-09T09:12:25.977Z,98801.91
2019-05-09T09:13:50.016Z,98805.25
2019-05-09T09:15:46.452Z,98801.31
2019-05-09T09:17:00.292Z,98799.29
2019-05-09T09:18:34.549Z,98796.20
2019-05-09T09:20:08.853Z,98798.72
2019-05-09T09:21:46.666Z,98797.55
2019-05-09T09:23:20.489Z,98797.71
2019-05-09T09:24:58.455Z,98799.88
2019-05-09T09:26:32.233Z,98800.10
2019-05-09T09:28:08.846Z,98798.45
2019-05-09T09:29:42.889Z,98797.80
2019-05-09T09:31:18.025Z,98805.57
2019-05-09T09:32:53.624Z,98798.72
2019-05-09T09:34:30.046Z,98794.19
2019-05-09T09:36:09.247Z,98787.91
2019-05-09T09:37:48.593Z,98783.14
2019-05-09T09:39:19.301Z,98787.17
2019-05-09T09:40:53.512Z,98787.63
2019-05-09T09:42:28.406Z,98786.55
2019-05-09T09:44:04.465Z,98783.95
2019-05-09T09:45:38.686Z,98781.71
2019-05-09T09:47:12.901Z,98780.70
2019-05-09T09:48:48.173Z,98776.45
2019-05-09T09:50:22.522Z,98774.16
2019-05-09T09:51:58.154Z,98776.52
2019-05-09T09:53:32.590Z,98776.30
2019-05-09T09:55:09.010Z,98778.09
2019-05-09T09:56:47.720Z,98771.35
2019-05-09T09:58:21.014Z,98770.02
2019-05-09T09:59:58.401Z,98768.16
2019-05-09T10:01:37.966Z,98766.42
2019-05-09T10:03:11.854Z,98764.61
2019-05-09T10:04:46.062Z,98759.75
2019-05-09T10:06:20.351Z,98757.16
2019-05-09T10:07:54.888Z,98752.52
2019-05-09T10:09:29.100Z,98756.13
2019-05-09T10:11:03.385Z,98756.98
2019-05-09T10:12:43.558Z,98756.74
2019-05-09T10:14:15.405Z,98750.16
2019-05-09T10:16:25.208Z,98746.50
2019-05-09T10:17:47.755Z,98749.34
2019-05-09T10:19:33.361Z,98747.19
2019-05-09T10:21:09.278Z,98740.99
2019-05-09T10:22:46.833Z,98742.73
2019-05-09T10:24:20.266Z,98743.63
2019-05-09T10:25:54.800Z,98743.37
2019-05-09T10:27:29.194Z,98737.40
2019-05-09T10:29:03.462Z,98731.08
2019-05-09T10:30:38.388Z,98734.38
2019-05-09T10:32:14.517Z,98730.30
2019-05-09T10:33:48.736Z,98729.17
2019-05-09T10:35:23.803Z,98718.56
2019-05-09T10:36:58.376Z,98726.11
2019-05-09T10:38:33.073Z,98723.30
2019-05-09T10:40:07.429Z,98721.94
2019-05-09T10:41:41.713Z,98718.43
2019-05-09T10:43:35.551Z,98719.10
2019-05-09T10:45:07.530Z,98723.45
2019-05-09T10:46:56.772Z,98718.27
2019-05-09T10:48:28.155Z,98714.34
2019-05-09T10:50:01.199Z,98711.59
2019-05-09T10:51:35.728Z,98703.35
2019-05-09T10:53:09.937Z,98707.26
2019-05-09T10:54:44.192Z,98707.31
2019-05-09T10:56:19.045Z,98704.90
2019-05-09T10:57:53.901Z,98697.69
2019-05-09T10:59:28.116Z,98697.87
2019-05-09T11:01:02.451Z,98706.11
2019-05-09T11:02:36.675Z,98696.86
2019-05-09T11:04:11.233Z,98702.20
2019-05-09T11:05:45.447Z,98700.19
2019-05-09T11:07:19.709Z,98695.43
2019-05-09T11:08:53.911Z,98686.80
2019-05-09T11:10:31.901Z,98692.27
2019-05-09T11:12:04.652Z,98690.45
2019-05-09T11:13:40.367Z,98692.98
2019-05-09T11:15:14.660Z,98690.04
2019-05-09T11:16:54.233Z,98686.36
2019-05-09T11:18:24.914Z,98681.77
2019-05-09T11:19:59.169Z,98684.79
2019-05-09T11:21:33.460Z,98682.37
2019-05-09T11:23:08.264Z,98679.55
2019-05-09T11:24:46.651Z,98678.55
2019-05-09T11:26:18.633Z,98677.68
2019-05-09T11:28:06.667Z,98674.00
2019-05-09T11:29:29.017Z,98672.52
2019-05-09T11:31:03.304Z,98669.58
2019-05-09T11:32:38.607Z,98667.48
2019-05-09T11:34:12.888Z,98663.76
2019-05-09T11:35:48.047Z,98664.20
2019-05-09T11:37:22.502Z,98660.78
2019-05-09T11:39:00.167Z,98660.16
2019-05-09T11:40:32.651Z,98654.68
2019-05-09T11:42:07.219Z,98653.10
2019-05-09T11:43:41.477Z,98658.44
2019-05-09T11:45:17.716Z,98651.39
2019-05-09T11:46:51.638Z,98651.44
2019-05-09T11:48:28.408Z,98647.15
2019-05-09T11:50:02.363Z,98646.05
2019-05-09T11:51:38.106Z,98640.56
2019-05-09T11:53:12.335Z,98645.77
2019-05-09T11:54:48.193Z,98639.11
2019-05-09T11:56:22.558Z,98640.94
2019-05-09T11:57:59.067Z,98639.38
2019-05-09T11:59:34.410Z,98640.00
2019-05-09T12:01:08.945Z,98640.05
2019-05-09T12:02:43.205Z,98643.03
2019-05-09T12:04:18.763Z,98644.23
2019-05-09T12:05:53.228Z,98639.92
2019-05-09T12:07:28.815Z,98639.88
2019-05-09T12:09:05.309Z,98633.47
2019-05-09T12:10:39.507Z,98637.03
2019-05-09T12:12:13.786Z,98631.08
2019-05-09T12:13:48.905Z,98632.73
2019-05-09T12:15:24.388Z,98623.66
2019-05-09T12:16:58.644Z,98624.06
2019-05-09T12:18:32.853Z,98620.90
2019-05-09T12:20:12.597Z,98620.23
2019-05-09T12:21:47.762Z,98617.20
2019-05-09T12:23:20.129Z,98618.22
2019-05-09T12:24:54.541Z,98615.49
2019-05-09T12:26:29.483Z,98612.33
2019-05-09T12:28:03.751Z,98613.83
2019-05-09T12:29:38.677Z,98611.36
2019-05-09T12:31:13.383Z,98613.08
2019-05-09T12:32:48.004Z,98612.23
2019-05-09T12:34:22.206Z,98606.09
2019-05-09T12:35:59.307Z,98604.11
2019-05-09T12:37:33.181Z,98594.72
2019-05-09T12:39:09.677Z,98591.52
2019-05-09T12:40:43.885Z,98592.88
2019-05-09T12:42:18.777Z,98582.64
2019-05-09T12:43:53.292Z,98584.48
2019-05-09T12:45:27.802Z,98579.00
2019-05-09T12:47:04.897Z,98580.40
2019-05-09T12:48:39.144Z,98577.97
2019-05-09T12:50:13.622Z,98574.16
2019-05-09T12:51:48.045Z,98568.41
2019-05-09T12:53:22.272Z,98563.18
2019-05-09T12:54:58.257Z,98556.95
2019-05-09T12:56:32.372Z,98561.72
2019-05-09T12:58:09.785Z,98552.50
2019-05-09T12:59:48.976Z,98558.14
2019-05-09T13:01:20.071Z,98559.36
2019-05-09T13:02:54.339Z,98559.30
2019-05-09T13:04:28.854Z,98561.80
2019-05-09T13:06:03.165Z,98560.42
2019-05-09T13:07:40.009Z,98554.80
2019-05-09T13:09:13.469Z,98556.66
2019-05-09T13:10:48.835Z,98556.16
2019-05-09T13:12:23.344Z,98554.03
2019-05-09T13:13:58.128Z,98545.37
2019-05-09T13:15:34.021Z,98543.61
2019-05-09T13:17:17.828Z,98547.63
2019-05-09T13:19:05.376Z,98541.49
2019-05-09T13:20:39.626Z,98540.55
2019-05-09T13:22:13.858Z,98535.86
2019-05-09T13:23:52.225Z,98541.59
2019-05-09T13:25:24.372Z,98536.20
2019-05-09T13:26:58.655Z,98531.28
2019-05-09T13:28:32.838Z,98531.86
2019-05-09T13:30:08.555Z,98534.05
2019-05-09T13:31:42.753Z,98533.15
2019-05-09T13:33:18.884Z,98529.03
2019-05-09T13:34:52.910Z,98528.83
2019-05-09T13:36:28.356Z,98530.54
2019-05-09T13:38:02.958Z,98529.44
2019-05-09T13:39:39.459Z,98531.89
2019-05-09T13:41:13.000Z,98528.26
2019-05-09T13:42:49.082Z,98526.26
2019-05-09T13:44:23.411Z,98520.22
2019-05-09T13:45:58.801Z,98525.58
2019-05-09T13:47:33.030Z,98525.42
2019-05-09T13:49:12.570Z,98516.95
2019-05-09T13:50:43.502Z,98511.11
2019-05-09T13:52:18.053Z,98517.06
2019-05-09T13:53:53.765Z,98518.58
2019-05-09T13:55:28.679Z,98517.94
2019-05-09T13:57:02.889Z,98517.83
2019-05-09T13:58:38.428Z,98519.98
2019-05-09T14:00:12.908Z,98519.22
2019-05-09T14:01:48.005Z,98514.43
2019-05-09T14:03:22.294Z,98514.09
2019-05-09T14:04:58.397Z,98516.67
2019-05-09T14:06:32.518Z,98518.59
2019-05-09T14:08:09.126Z,98516.59
2019-05-09T14:09:42.922Z,98518.91
2019-05-09T14:11:19.356Z,98513.60
2019-05-09T14:13:05.635Z,98520.28
2019-05-09T14:14:29.436Z,98520.36
2019-05-09T14:16:18.889Z,98515.80
2019-05-09T14:17:49.168Z,98520.83
2019-05-09T14:19:31.736Z,98524.08
2019-05-09T14:20:51.782Z,98519.19
2019-05-09T14:22:26.068Z,98517.31
2019-05-09T14:24:10.802Z,98514.06
2019-05-09T14:25:38.138Z,98517.43
2019-05-09T14:27:12.315Z,98517.17
2019-05-09T14:28:48.870Z,98513.16
2019-05-09T14:30:22.448Z,98514.81
2019-05-09T14:31:56.733Z,98509.91
2019-05-09T14:33:31.096Z,98515.23
2019-05-09T14:35:08.512Z,98511.03
2019-05-09T14:36:45.696Z,98509.69
2019-05-09T14:38:19.246Z,98511.78
2019-05-09T14:39:58.701Z,98508.88
2019-05-09T14:41:29.938Z,98502.95
2019-05-09T14:43:04.208Z,98504.02
2019-05-09T14:44:38.436Z,98499.38
2019-05-09T14:46:12.832Z,98499.86
2019-05-09T14:47:47.116Z,98503.48
2019-05-09T14:49:21.460Z,98500.62
2019-05-09T14:50:58.175Z,98507.48
2019-05-09T14:52:31.745Z,98503.70
2019-05-09T14:54:08.367Z,98497.23
2019-05-09T14:55:43.298Z,98495.19
2019-05-09T14:57:17.864Z,98489.70
2019-05-09T14:58:52.357Z,98494.13
2019-05-09T15:00:26.772Z,98494.16
2019-05-09T15:02:00.984Z,98489.16
2019-05-09T15:03:35.263Z,98495.95
2019-05-09T15:05:09.908Z,98495.13
2019-05-09T15:06:44.125Z,98497.98
2019-05-09T15:08:18.353Z,98494.41
2019-05-09T15:09:56.809Z,98494.68
2019-05-09T15:11:31.925Z,98491.28
2019-05-09T15:13:07.798Z,98489.66
2019-05-09T15:14:42.026Z,98492.13
2019-05-09T15:16:18.481Z,98487.20
2019-05-09T15:17:52.419Z,98493.14
2019-05-09T15:19:28.741Z,98489.98
2019-05-09T15:21:02.728Z,98492.37
2019-05-09T15:22:38.666Z,98491.83
2019-05-09T15:24:13.009Z,98497.56
2019-05-09T15:25:48.045Z,98503.30
2019-05-09T15:27:22.746Z,98500.61
2019-05-09T15:28:57.780Z,98504.51
2019-05-09T15:30:32.734Z,98508.33
2019-05-09T15:32:12.077Z,98506.92
2019-05-09T15:33:42.878Z,98510.14
2019-05-09T15:35:18.276Z,98511.94
2019-05-09T15:36:53.026Z,98512.30
2019-05-09T15:38:29.015Z,98513.09
2019-05-09T15:40:03.424Z,98513.70
2019-05-09T15:41:38.446Z,98512.27
2019-05-09T15:43:13.211Z,98524.00
2019-05-09T15:44:49.356Z,98517.95
2019-05-09T15:46:27.762Z,98520.19
2019-05-09T15:48:01.122Z,98516.52
2019-05-09T15:49:38.364Z,98517.53
2019-05-09T15:51:11.828Z,98508.16
2019-05-09T15:53:08.410Z,98523.99
2019-05-09T15:54:43.531Z,98527.81
2019-05-09T15:56:18.737Z,98526.75
2019-05-09T15:57:53.236Z,98529.62
2019-05-09T15:59:28.226Z,98530.89
2019-05-09T16:01:02.809Z,98534.55
2019-05-09T16:02:39.082Z,98536.08
2019-05-09T16:04:13.577Z,98538.27
2019-05-09T16:05:48.062Z,98533.39
2019-05-09T16:07:22.726Z,98530.80
2019-05-09T16:08:58.575Z,98535.04
2019-05-09T16:10:32.960Z,98533.26
2019-05-09T16:12:07.806Z,98528.34
2019-05-09T16:13:42.416Z,98534.38
2019-05-09T16:15:18.393Z,98543.11
2019-05-09T16:16:52.929Z,98544.27
2019-05-09T16:18:28.804Z,98545.08
2019-05-09T16:20:08.420Z,98538.02
2019-05-09T16:21:42.696Z,98543.38
2019-05-09T16:23:18.437Z,98545.75
2019-05-09T16:24:52.889Z,98540.59
2019-05-09T16:26:29.129Z,98540.70
2019-05-09T16:28:03.495Z,98545.64
2019-05-09T16:29:38.297Z,98543.31
2019-05-09T16:31:13.458Z,98546.48
2019-05-09T16:32:49.640Z,98547.84
2019-05-09T16:34:25.332Z,98547.55
2019-05-09T16:36:00.955Z,98545.91
2019-05-09T16:37:52.533Z,98543.42
2019-05-09T16:39:11.366Z,98545.43
2019-05-09T16:40:47.918Z,98548.75
2019-05-09T16:42:21.947Z,98549.83
2019-05-09T16:43:58.280Z,98555.92
2019-05-09T16:45:32.197Z,98554.48
2019-05-09T16:47:08.325Z,98553.60
2019-05-09T16:48:42.442Z,98551.42
2019-05-09T16:50:17.946Z,98555.09
2019-05-09T16:51:53.443Z,98558.59
2019-05-09T16:53:28.005Z,98557.60
2019-05-09T16:55:03.878Z,98558.83
2019-05-09T16:56:38.356Z,98563.41
2019-05-09T16:58:14.377Z,98563.84
2019-05-09T16:59:49.745Z,98561.13
2019-05-09T17:01:23.956Z,98569.37
2019-05-09T17:02:58.191Z,98572.42
2019-05-09T17:04:33.921Z,98566.14
2019-05-09T17:06:08.293Z,98570.52
2019-05-09T17:07:43.965Z,98569.25
2019-05-09T17:09:18.224Z,98569.33
2019-05-09T17:10:53.468Z,98572.62
2019-05-09T17:12:27.888Z,98570.66
2019-05-09T17:14:02.179Z,98572.97
2019-05-09T17:15:38.952Z,98574.13
2019-05-09T17:17:13.360Z,98582.16
2019-05-09T17:18:48.633Z,98579.42
2019-05-09T17:20:33.973Z,98579.64
2019-05-09T17:22:09.853Z,98589.84
2019-05-09T17:23:47.637Z,98591.69
2019-05-09T17:25:21.788Z,98594.23
2019-05-09T17:26:57.976Z,98590.53
2019-05-09T17:28:32.352Z,98577.81
2019-05-09T17:30:08.601Z,98592.80
2019-05-09T17:31:43.013Z,98596.74
2019-05-09T17:33:17.416Z,98594.95
2019-05-09T17:34:51.652Z,98597.64
2019-05-09T17:36:28.413Z,98600.02
2019-05-09T17:38:02.178Z,98601.44
2019-05-09T17:39:38.444Z,98606.41
2019-05-09T17:41:12.301Z,98605.73
2019-05-09T17:42:47.134Z,98603.26
2019-05-09T17:44:21.432Z,98605.16
2019-05-09T17:45:58.172Z,98599.83
2019-05-09T17:47:31.565Z,98602.98
2019-05-09T17:49:08.199Z,98602.27
2019-05-09T17:50:42.070Z,98604.67
2019-05-09T17:52:18.265Z,98597.97
2019-05-09T17:53:52.403Z,98603.63
2019-05-09T17:55:26.829Z,98597.84
2019-05-09T17:57:01.065Z,98600.14
2019-05-09T17:58:37.847Z,98603.88
2019-05-09T18:00:13.044Z,98599.08
2019-05-09T18:01:48.235Z,98602.88
2019-05-09T18:03:22.838Z,98602.04
2019-05-09T18:04:58.252Z,98609.98
2019-05-09T18:06:32.690Z,98611.77
2019-05-09T18:08:08.792Z,98612.38
2019-05-09T18:09:43.086Z,98609.25
2019-05-09T18:11:17.550Z,98614.19
2019-05-09T18:12:52.061Z,98604.85
2019-05-09T18:14:27.664Z,98604.52
2019-05-09T18:16:02.783Z,98603.55
2019-05-09T18:17:38.283Z,98605.52
2019-05-09T18:19:13.014Z,98603.19
2019-05-09T18:20:49.038Z,98602.19
2019-05-09T18:22:23.245Z,98598.00
2019-05-09T18:23:58.679Z,98596.02
2019-05-09T18:25:33.208Z,98597.45
2019-05-09T18:27:10.163Z,98586.77
2019-05-09T18:28:44.480Z,98586.91
2019-05-09T18:30:19.346Z,98594.62
2019-05-09T18:32:03.022Z,98595.53
2019-05-09T18:33:41.731Z,98590.48
2019-05-09T18:35:17.684Z,98595.62
2019-05-09T18:36:51.980Z,98597.22
2019-05-09T18:38:29.203Z,98586.75
2019-05-09T18:40:04.507Z,98591.37
2019-05-09T18:41:38.724Z,98590.19